sensor_id;sensor_type;location;lat;lon;timestamp;temperature;humidity
70246;SHT30;57637;49.272;8.590;2023-08-20T00:01:36;24.24;84.83
70246;SHT30;57637;49.272;8.590;2023-08-20T00:04:02;24.18;85.05
70246;SHT30;57637;49.272;8.590;2023-08-20T00:06:28;24.18;85.10
70246;SHT30;57637;49.272;8.590;2023-08-20T00:08:53;24.18;84.77
70246;SHT30;57637;49.272;8.590;2023-08-20T00:11:19;24.16;84.86
70246;SHT30;57637;49.272;8.590;2023-08-20T00:13:44;24.08;85.41
70246;SHT30;57637;49.272;8.590;2023-08-20T00:16:10;24.01;85.44
70246;SHT30;57637;49.272;8.590;2023-08-20T00:18:37;23.91;85.67
70246;SHT30;57637;49.272;8.590;2023-08-20T00:21:03;23.84;85.74
70246;SHT30;57637;49.272;8.590;2023-08-20T00:23:29;23.74;85.72
70246;SHT30;57637;49.272;8.590;2023-08-20T00:25:55;23.70;85.96
70246;SHT30;57637;49.272;8.590;2023-08-20T00:28:21;23.67;85.99
70246;SHT30;57637;49.272;8.590;2023-08-20T00:30:46;23.65;86.03
70246;SHT30;57637;49.272;8.590;2023-08-20T00:33:11;23.60;86.06
70246;SHT30;57637;49.272;8.590;2023-08-20T00:35:37;23.57;86.18
70246;SHT30;57637;49.272;8.590;2023-08-20T00:38:02;23.49;85.69
70246;SHT30;57637;49.272;8.590;2023-08-20T00:40:28;23.47;84.09
70246;SHT30;57637;49.272;8.590;2023-08-20T00:42:53;23.53;84.10
70246;SHT30;57637;49.272;8.590;2023-08-20T00:45:19;23.50;83.13
70246;SHT30;57637;49.272;8.590;2023-08-20T00:47:44;23.54;82.84
70246;SHT30;57637;49.272;8.590;2023-08-20T00:50:09;23.55;82.86
70246;SHT30;57637;49.272;8.590;2023-08-20T00:52:36;23.57;82.89
70246;SHT30;57637;49.272;8.590;2023-08-20T00:55:11;23.57;82.84
70246;SHT30;57637;49.272;8.590;2023-08-20T00:57:40;23.53;83.34
70246;SHT30;57637;49.272;8.590;2023-08-20T01:00:06;23.49;83.68
70246;SHT30;57637;49.272;8.590;2023-08-20T01:02:34;23.44;84.06
70246;SHT30;57637;49.272;8.590;2023-08-20T01:04:59;23.43;84.08
70246;SHT30;57637;49.272;8.590;2023-08-20T01:13:07;23.33;83.32
70246;SHT30;57637;49.272;8.590;2023-08-20T01:15:32;23.30;83.59
70246;SHT30;57637;49.272;8.590;2023-08-20T01:17:58;23.36;83.82
70246;SHT30;57637;49.272;8.590;2023-08-20T01:20:24;23.27;82.74
70246;SHT30;57637;49.272;8.590;2023-08-20T01:28:27;23.24;83.44
70246;SHT30;57637;49.272;8.590;2023-08-20T01:30:54;23.26;83.82
70246;SHT30;57637;49.272;8.590;2023-08-20T01:33:22;23.12;84.51
70246;SHT30;57637;49.272;8.590;2023-08-20T01:35:49;23.07;84.74
70246;SHT30;57637;49.272;8.590;2023-08-20T01:38:15;22.98;84.94
70246;SHT30;57637;49.272;8.590;2023-08-20T01:40:40;22.92;85.16
70246;SHT30;57637;49.272;8.590;2023-08-20T01:43:05;22.89;85.36
70246;SHT30;57637;49.272;8.590;2023-08-20T01:45:31;22.83;85.46
70246;SHT30;57637;49.272;8.590;2023-08-20T01:47:56;22.83;85.52
70246;SHT30;57637;49.272;8.590;2023-08-20T01:50:21;22.81;85.50
70246;SHT30;57637;49.272;8.590;2023-08-20T01:52:47;22.77;85.50
70246;SHT30;57637;49.272;8.590;2023-08-20T01:55:12;22.79;85.39
70246;SHT30;57637;49.272;8.590;2023-08-20T01:57:38;22.79;85.33
70246;SHT30;57637;49.272;8.590;2023-08-20T02:00:04;22.72;85.37
70246;SHT30;57637;49.272;8.590;2023-08-20T02:02:30;22.69;85.55
70246;SHT30;57637;49.272;8.590;2023-08-20T02:04:56;22.63;85.44
70246;SHT30;57637;49.272;8.590;2023-08-20T02:07:21;22.61;85.53
70246;SHT30;57637;49.272;8.590;2023-08-20T02:09:46;22.53;85.65
70246;SHT30;57637;49.272;8.590;2023-08-20T02:12:12;22.51;85.62
70246;SHT30;57637;49.272;8.590;2023-08-20T02:14:37;22.48;85.57
70246;SHT30;57637;49.272;8.590;2023-08-20T02:17:03;22.39;85.72
70246;SHT30;57637;49.272;8.590;2023-08-20T02:19:29;22.32;85.59
70246;SHT30;57637;49.272;8.590;2023-08-20T02:21:54;22.22;85.48
70246;SHT30;57637;49.272;8.590;2023-08-20T02:24:19;22.12;85.49
70246;SHT30;57637;49.272;8.590;2023-08-20T02:26:45;22.02;85.59
70246;SHT30;57637;49.272;8.590;2023-08-20T02:29:10;21.97;85.67
70246;SHT30;57637;49.272;8.590;2023-08-20T02:31:36;21.97;85.72
70246;SHT30;57637;49.272;8.590;2023-08-20T02:34:01;21.97;85.66
70246;SHT30;57637;49.272;8.590;2023-08-20T02:36:27;21.96;85.77
70246;SHT30;57637;49.272;8.590;2023-08-20T02:38:52;21.96;85.62
70246;SHT30;57637;49.272;8.590;2023-08-20T02:41:18;21.91;85.51
70246;SHT30;57637;49.272;8.590;2023-08-20T02:43:43;21.93;85.36
70246;SHT30;57637;49.272;8.590;2023-08-20T02:46:09;21.84;85.69
70246;SHT30;57637;49.272;8.590;2023-08-20T02:48:35;21.73;86.04
70246;SHT30;57637;49.272;8.590;2023-08-20T02:51:00;21.61;86.24
70246;SHT30;57637;49.272;8.590;2023-08-20T02:53:25;21.63;86.18
70246;SHT30;57637;49.272;8.590;2023-08-20T02:55:51;21.64;86.14
70246;SHT30;57637;49.272;8.590;2023-08-20T02:58:16;21.56;86.10
70246;SHT30;57637;49.272;8.590;2023-08-20T03:00:41;21.56;86.19
70246;SHT30;57637;49.272;8.590;2023-08-20T03:03:08;21.60;85.98
70246;SHT30;57637;49.272;8.590;2023-08-20T03:05:34;21.59;85.89
70246;SHT30;57637;49.272;8.590;2023-08-20T03:08:00;21.56;85.95
70246;SHT30;57637;49.272;8.590;2023-08-20T03:10:29;21.56;85.89
70246;SHT30;57637;49.272;8.590;2023-08-20T03:12:56;21.39;86.13
70246;SHT30;57637;49.272;8.590;2023-08-20T03:15:22;21.23;86.58
70246;SHT30;57637;49.272;8.590;2023-08-20T03:17:47;21.27;86.63
70246;SHT30;57637;49.272;8.590;2023-08-20T03:20:12;21.27;86.38
70246;SHT30;57637;49.272;8.590;2023-08-20T03:22:38;21.30;86.60
70246;SHT30;57637;49.272;8.590;2023-08-20T03:25:04;21.15;87.08
70246;SHT30;57637;49.272;8.590;2023-08-20T03:27:30;21.15;87.25
70246;SHT30;57637;49.272;8.590;2023-08-20T03:29:55;21.22;87.34
70246;SHT30;57637;49.272;8.590;2023-08-20T03:32:21;21.23;87.38
70246;SHT30;57637;49.272;8.590;2023-08-20T03:34:47;21.23;87.72
70246;SHT30;57637;49.272;8.590;2023-08-20T03:37:12;21.23;87.77
70246;SHT30;57637;49.272;8.590;2023-08-20T03:39:38;21.22;87.80
70246;SHT30;57637;49.272;8.590;2023-08-20T03:42:03;21.25;87.75
70246;SHT30;57637;49.272;8.590;2023-08-20T03:44:29;21.27;87.71
70246;SHT30;57637;49.272;8.590;2023-08-20T03:46:56;21.27;87.51
70246;SHT30;57637;49.272;8.590;2023-08-20T03:49:21;21.23;87.30
70246;SHT30;57637;49.272;8.590;2023-08-20T03:51:47;21.13;87.17
70246;SHT30;57637;49.272;8.590;2023-08-20T03:54:13;21.09;87.41
70246;SHT30;57637;49.272;8.590;2023-08-20T03:56:38;21.09;87.47
70246;SHT30;57637;49.272;8.590;2023-08-20T03:59:04;21.09;87.46
70246;SHT30;57637;49.272;8.590;2023-08-20T04:01:29;21.08;87.21
70246;SHT30;57637;49.272;8.590;2023-08-20T04:03:54;21.02;87.23
70246;SHT30;57637;49.272;8.590;2023-08-20T04:06:20;20.98;87.28
70246;SHT30;57637;49.272;8.590;2023-08-20T04:08:45;20.95;87.40
70246;SHT30;57637;49.272;8.590;2023-08-20T04:11:11;20.95;87.47
70246;SHT30;57637;49.272;8.590;2023-08-20T04:13:36;20.92;87.51
70246;SHT30;57637;49.272;8.590;2023-08-20T04:16:01;20.96;87.55
70246;SHT30;57637;49.272;8.590;2023-08-20T04:18:27;20.95;87.52
70246;SHT30;57637;49.272;8.590;2023-08-20T04:20:52;20.96;87.54
70246;SHT30;57637;49.272;8.590;2023-08-20T04:23:21;20.88;87.56
70246;SHT30;57637;49.272;8.590;2023-08-20T04:25:47;20.89;87.64
70246;SHT30;57637;49.272;8.590;2023-08-20T04:28:12;20.85;87.49
70246;SHT30;57637;49.272;8.590;2023-08-20T04:30:38;20.79;87.49
70246;SHT30;57637;49.272;8.590;2023-08-20T04:33:03;20.78;87.60
70246;SHT30;57637;49.272;8.590;2023-08-20T04:35:29;20.84;87.71
70246;SHT30;57637;49.272;8.590;2023-08-20T04:37:55;20.94;87.71
70246;SHT30;57637;49.272;8.590;2023-08-20T04:40:20;21.05;87.49
70246;SHT30;57637;49.272;8.590;2023-08-20T04:42:45;21.20;87.13
70246;SHT30;57637;49.272;8.590;2023-08-20T04:45:11;21.25;86.94
70246;SHT30;57637;49.272;8.590;2023-08-20T04:47:37;21.33;86.55
70246;SHT30;57637;49.272;8.590;2023-08-20T04:50:02;21.30;86.01
70246;SHT30;57637;49.272;8.590;2023-08-20T04:52:28;21.29;86.22
70246;SHT30;57637;49.272;8.590;2023-08-20T04:54:54;21.29;86.19
70246;SHT30;57637;49.272;8.590;2023-08-20T04:57:19;21.45;86.30
70246;SHT30;57637;49.272;8.590;2023-08-20T04:59:44;21.71;85.98
70246;SHT30;57637;49.272;8.590;2023-08-20T05:02:13;21.87;85.56
70246;SHT30;57637;49.272;8.590;2023-08-20T05:04:38;22.18;85.17
70246;SHT30;57637;49.272;8.590;2023-08-20T05:07:04;22.49;84.37
70246;SHT30;57637;49.272;8.590;2023-08-20T05:09:30;22.68;84.02
70246;SHT30;57637;49.272;8.590;2023-08-20T05:11:56;22.73;83.78
70246;SHT30;57637;49.272;8.590;2023-08-20T05:14:21;22.73;83.56
70246;SHT30;57637;49.272;8.590;2023-08-20T05:16:46;22.63;84.07
70246;SHT30;57637;49.272;8.590;2023-08-20T05:19:12;22.68;83.79
70246;SHT30;57637;49.272;8.590;2023-08-20T05:21:37;22.93;83.68
70246;SHT30;57637;49.272;8.590;2023-08-20T05:24:03;22.90;83.62
70246;SHT30;57637;49.272;8.590;2023-08-20T05:26:28;22.88;83.53
70246;SHT30;57637;49.272;8.590;2023-08-20T05:28:56;22.73;84.04
70246;SHT30;57637;49.272;8.590;2023-08-20T05:31:22;22.62;84.21
70246;SHT30;57637;49.272;8.590;2023-08-20T05:33:47;22.90;83.70
70246;SHT30;57637;49.272;8.590;2023-08-20T05:36:13;22.93;83.86
70246;SHT30;57637;49.272;8.590;2023-08-20T05:38:39;22.96;84.09
70246;SHT30;57637;49.272;8.590;2023-08-20T05:41:05;22.93;84.09
70246;SHT30;57637;49.272;8.590;2023-08-20T05:43:30;22.90;84.39
70246;SHT30;57637;49.272;8.590;2023-08-20T05:45:55;22.65;85.15
70246;SHT30;57637;49.272;8.590;2023-08-20T05:48:21;22.93;84.29
70246;SHT30;57637;49.272;8.590;2023-08-20T05:50:46;23.09;84.58
70246;SHT30;57637;49.272;8.590;2023-08-20T05:53:11;23.17;84.04
70246;SHT30;57637;49.272;8.590;2023-08-20T05:55:37;23.53;84.29
70246;SHT30;57637;49.272;8.590;2023-08-20T05:58:03;23.54;84.21
70246;SHT30;57637;49.272;8.590;2023-08-20T06:00:28;23.47;83.12
70246;SHT30;57637;49.272;8.590;2023-08-20T06:02:53;23.17;83.35
70246;SHT30;57637;49.272;8.590;2023-08-20T06:05:19;23.37;82.96
70246;SHT30;57637;49.272;8.590;2023-08-20T06:07:44;23.36;83.78
70246;SHT30;57637;49.272;8.590;2023-08-20T06:10:10;23.40;83.27
70246;SHT30;57637;49.272;8.590;2023-08-20T06:12:36;23.30;82.77
70246;SHT30;57637;49.272;8.590;2023-08-20T06:15:02;23.27;82.60
70246;SHT30;57637;49.272;8.590;2023-08-20T06:17:29;23.27;82.90
70246;SHT30;57637;49.272;8.590;2023-08-20T06:19:54;23.50;82.18
70246;SHT30;57637;49.272;8.590;2023-08-20T06:22:19;23.34;81.30
70246;SHT30;57637;49.272;8.590;2023-08-20T06:24:45;23.53;81.52
70246;SHT30;57637;49.272;8.590;2023-08-20T06:27:10;23.55;81.10
70246;SHT30;57637;49.272;8.590;2023-08-20T06:29:35;23.49;80.76
70246;SHT30;57637;49.272;8.590;2023-08-20T06:32:01;23.49;80.52
70246;SHT30;57637;49.272;8.590;2023-08-20T06:34:27;23.43;80.81
70246;SHT30;57637;49.272;8.590;2023-08-20T06:36:52;23.53;80.52
70246;SHT30;57637;49.272;8.590;2023-08-20T06:39:18;23.55;80.33
70246;SHT30;57637;49.272;8.590;2023-08-20T06:41:45;23.55;80.66
70246;SHT30;57637;49.272;8.590;2023-08-20T06:44:10;23.60;80.95
70246;SHT30;57637;49.272;8.590;2023-08-20T06:46:36;23.54;80.88
70246;SHT30;57637;49.272;8.590;2023-08-20T06:49:02;23.73;80.56
70246;SHT30;57637;49.272;8.590;2023-08-20T06:51:28;23.50;81.24
70246;SHT30;57637;49.272;8.590;2023-08-20T06:53:53;23.78;79.75
70246;SHT30;57637;49.272;8.590;2023-08-20T06:56:20;24.25;78.57
70246;SHT30;57637;49.272;8.590;2023-08-20T06:58:45;24.73;77.34
70246;SHT30;57637;49.272;8.590;2023-08-20T07:01:11;24.00;78.26
70246;SHT30;57637;49.272;8.590;2023-08-20T07:03:38;24.39;78.33
70246;SHT30;57637;49.272;8.590;2023-08-20T07:06:05;24.39;77.98
70246;SHT30;57637;49.272;8.590;2023-08-20T07:08:30;24.48;77.83
70246;SHT30;57637;49.272;8.590;2023-08-20T07:10:56;24.35;78.55
70246;SHT30;57637;49.272;8.590;2023-08-20T07:13:22;24.40;78.10
70246;SHT30;57637;49.272;8.590;2023-08-20T07:15:48;24.36;79.83
70246;SHT30;57637;49.272;8.590;2023-08-20T07:18:13;24.57;78.02
70246;SHT30;57637;49.272;8.590;2023-08-20T07:20:40;24.97;78.13
70246;SHT30;57637;49.272;8.590;2023-08-20T07:23:08;25.20;77.08
70246;SHT30;57637;49.272;8.590;2023-08-20T07:25:37;25.18;77.07
70246;SHT30;57637;49.272;8.590;2023-08-20T07:28:04;25.67;75.89
70246;SHT30;57637;49.272;8.590;2023-08-20T07:30:30;26.02;75.08
70246;SHT30;57637;49.272;8.590;2023-08-20T07:32:56;25.69;75.75
70246;SHT30;57637;49.272;8.590;2023-08-20T07:35:21;25.69;75.54
70246;SHT30;57637;49.272;8.590;2023-08-20T07:37:47;25.31;77.27
70246;SHT30;57637;49.272;8.590;2023-08-20T07:40:12;25.48;76.98
70246;SHT30;57637;49.272;8.590;2023-08-20T07:42:39;25.82;76.06
70246;SHT30;57637;49.272;8.590;2023-08-20T07:45:05;26.35;74.76
70246;SHT30;57637;49.272;8.590;2023-08-20T07:47:32;26.61;74.03
70246;SHT30;57637;49.272;8.590;2023-08-20T07:49:57;26.65;74.13
70246;SHT30;57637;49.272;8.590;2023-08-20T07:52:23;27.00;72.81
70246;SHT30;57637;49.272;8.590;2023-08-20T07:54:48;26.94;72.38
70246;SHT30;57637;49.272;8.590;2023-08-20T07:57:14;26.95;72.79
70246;SHT30;57637;49.272;8.590;2023-08-20T07:59:39;26.67;73.13
70246;SHT30;57637;49.272;8.590;2023-08-20T08:02:05;26.83;73.66
70246;SHT30;57637;49.272;8.590;2023-08-20T08:04:30;27.16;72.86
70246;SHT30;57637;49.272;8.590;2023-08-20T08:06:56;26.81;73.47
70246;SHT30;57637;49.272;8.590;2023-08-20T08:09:26;26.74;73.89
70246;SHT30;57637;49.272;8.590;2023-08-20T08:11:52;26.56;74.40
70246;SHT30;57637;49.272;8.590;2023-08-20T08:14:18;26.59;73.56
70246;SHT30;57637;49.272;8.590;2023-08-20T08:16:44;26.86;73.09
70246;SHT30;57637;49.272;8.590;2023-08-20T08:19:10;27.30;72.66
70246;SHT30;57637;49.272;8.590;2023-08-20T08:21:36;27.28;71.86
70246;SHT30;57637;49.272;8.590;2023-08-20T08:24:01;27.27;71.83
70246;SHT30;57637;49.272;8.590;2023-08-20T08:26:27;27.07;72.14
70246;SHT30;57637;49.272;8.590;2023-08-20T08:28:53;27.12;72.27
70246;SHT30;57637;49.272;8.590;2023-08-20T08:31:18;27.31;71.70
70246;SHT30;57637;49.272;8.590;2023-08-20T08:33:44;28.26;70.17
70246;SHT30;57637;49.272;8.590;2023-08-20T08:36:09;28.54;69.49
70246;SHT30;57637;49.272;8.590;2023-08-20T08:38:36;28.54;69.16
70246;SHT30;57637;49.272;8.590;2023-08-20T08:41:02;28.78;68.05
70246;SHT30;57637;49.272;8.590;2023-08-20T08:43:29;28.46;68.18
70246;SHT30;57637;49.272;8.590;2023-08-20T08:45:56;28.67;68.46
70246;SHT30;57637;49.272;8.590;2023-08-20T08:48:22;28.91;66.92
70246;SHT30;57637;49.272;8.590;2023-08-20T08:50:49;29.02;67.36
70246;SHT30;57637;49.272;8.590;2023-08-20T08:53:16;28.79;68.38
70246;SHT30;57637;49.272;8.590;2023-08-20T08:55:45;29.19;67.59
70246;SHT30;57637;49.272;8.590;2023-08-20T08:58:12;28.90;67.83
70246;SHT30;57637;49.272;8.590;2023-08-20T09:00:37;28.50;68.19
70246;SHT30;57637;49.272;8.590;2023-08-20T09:03:02;28.48;68.14
70246;SHT30;57637;49.272;8.590;2023-08-20T09:05:28;29.07;66.79
70246;SHT30;57637;49.272;8.590;2023-08-20T09:07:56;29.43;66.36
70246;SHT30;57637;49.272;8.590;2023-08-20T09:10:25;29.65;65.28
70246;SHT30;57637;49.272;8.590;2023-08-20T09:12:53;29.35;65.08
70246;SHT30;57637;49.272;8.590;2023-08-20T09:15:20;29.16;65.93
70246;SHT30;57637;49.272;8.590;2023-08-20T09:17:46;28.72;66.76
70246;SHT30;57637;49.272;8.590;2023-08-20T09:20:11;28.87;66.48
70246;SHT30;57637;49.272;8.590;2023-08-20T09:22:37;28.60;67.44
70246;SHT30;57637;49.272;8.590;2023-08-20T09:25:02;28.82;67.77
70246;SHT30;57637;49.272;8.590;2023-08-20T09:27:28;29.05;66.92
70246;SHT30;57637;49.272;8.590;2023-08-20T09:29:54;29.43;66.22
70246;SHT30;57637;49.272;8.590;2023-08-20T09:32:24;28.86;66.57
70246;SHT30;57637;49.272;8.590;2023-08-20T09:34:51;28.90;67.27
70246;SHT30;57637;49.272;8.590;2023-08-20T09:37:19;29.40;65.84
70246;SHT30;57637;49.272;8.590;2023-08-20T09:39:46;29.23;65.48
70246;SHT30;57637;49.272;8.590;2023-08-20T09:42:12;29.28;65.49
70246;SHT30;57637;49.272;8.590;2023-08-20T09:44:40;29.23;64.45
70246;SHT30;57637;49.272;8.590;2023-08-20T09:47:07;29.42;64.70
70246;SHT30;57637;49.272;8.590;2023-08-20T09:49:44;29.35;65.20
70246;SHT30;57637;49.272;8.590;2023-08-20T09:52:11;29.40;65.80
70246;SHT30;57637;49.272;8.590;2023-08-20T09:54:45;29.16;64.87
70246;SHT30;57637;49.272;8.590;2023-08-20T09:57:12;29.48;64.97
70246;SHT30;57637;49.272;8.590;2023-08-20T09:59:48;29.83;64.78
70246;SHT30;57637;49.272;8.590;2023-08-20T10:02:14;29.93;63.92
70246;SHT30;57637;49.272;8.590;2023-08-20T10:04:41;29.79;63.99
70246;SHT30;57637;49.272;8.590;2023-08-20T10:07:08;29.90;64.02
70246;SHT30;57637;49.272;8.590;2023-08-20T10:09:35;29.73;63.58
70246;SHT30;57637;49.272;8.590;2023-08-20T10:12:02;30.31;62.45
70246;SHT30;57637;49.272;8.590;2023-08-20T10:14:28;30.31;62.12
70246;SHT30;57637;49.272;8.590;2023-08-20T10:16:53;30.49;61.49
70246;SHT30;57637;49.272;8.590;2023-08-20T10:19:19;30.33;62.09
70246;SHT30;57637;49.272;8.590;2023-08-20T10:21:44;29.80;62.94
70246;SHT30;57637;49.272;8.590;2023-08-20T10:24:15;30.18;63.22
70246;SHT30;57637;49.272;8.590;2023-08-20T10:26:42;30.18;62.76
70246;SHT30;57637;49.272;8.590;2023-08-20T10:29:34;30.11;62.56
70246;SHT30;57637;49.272;8.590;2023-08-20T10:32:04;30.52;62.04
70246;SHT30;57637;49.272;8.590;2023-08-20T10:34:31;30.71;62.29
70246;SHT30;57637;49.272;8.590;2023-08-20T10:37:01;31.02;60.56
70246;SHT30;57637;49.272;8.590;2023-08-20T10:39:28;30.55;61.50
70246;SHT30;57637;49.272;8.590;2023-08-20T10:42:09;30.44;61.76
70246;SHT30;57637;49.272;8.590;2023-08-20T10:47:24;30.65;60.78
70246;SHT30;57637;49.272;8.590;2023-08-20T10:49:53;30.84;60.96
70246;SHT30;57637;49.272;8.590;2023-08-20T10:52:22;30.85;60.40
70246;SHT30;57637;49.272;8.590;2023-08-20T10:54:52;30.85;59.80
70246;SHT30;57637;49.272;8.590;2023-08-20T10:57:18;30.57;60.54
70246;SHT30;57637;49.272;8.590;2023-08-20T10:59:55;30.92;60.32
70246;SHT30;57637;49.272;8.590;2023-08-20T11:02:25;30.81;59.78
70246;SHT30;57637;49.272;8.590;2023-08-20T11:04:51;30.82;58.98
70246;SHT30;57637;49.272;8.590;2023-08-20T11:07:18;31.02;60.04
70246;SHT30;57637;49.272;8.590;2023-08-20T11:09:44;30.79;59.46
70246;SHT30;57637;49.272;8.590;2023-08-20T11:12:14;30.82;59.27
70246;SHT30;57637;49.272;8.590;2023-08-20T11:14:40;30.85;58.10
70246;SHT30;57637;49.272;8.590;2023-08-20T11:17:06;30.86;59.45
70246;SHT30;57637;49.272;8.590;2023-08-20T11:19:33;31.39;59.15
70246;SHT30;57637;49.272;8.590;2023-08-20T11:21:58;31.45;58.13
70246;SHT30;57637;49.272;8.590;2023-08-20T11:24:28;31.67;57.58
70246;SHT30;57637;49.272;8.590;2023-08-20T11:26:54;31.15;57.65
70246;SHT30;57637;49.272;8.590;2023-08-20T11:29:20;31.19;57.67
70246;SHT30;57637;49.272;8.590;2023-08-20T11:31:46;31.47;57.72
70246;SHT30;57637;49.272;8.590;2023-08-20T11:34:12;31.36;57.46
70246;SHT30;57637;49.272;8.590;2023-08-20T11:36:40;31.66;56.34
70246;SHT30;57637;49.272;8.590;2023-08-20T11:39:06;31.59;55.47
70246;SHT30;57637;49.272;8.590;2023-08-20T11:41:35;32.01;55.75
70246;SHT30;57637;49.272;8.590;2023-08-20T11:44:01;32.10;55.36
70246;SHT30;57637;49.272;8.590;2023-08-20T11:46:28;32.45;56.13
70246;SHT30;57637;49.272;8.590;2023-08-20T11:49:04;32.45;54.74
70246;SHT30;57637;49.272;8.590;2023-08-20T11:54:07;32.51;55.37
70246;SHT30;57637;49.272;8.590;2023-08-20T11:56:34;32.85;53.77
70246;SHT30;57637;49.272;8.590;2023-08-20T11:59:00;33.19;52.78
70246;SHT30;57637;49.272;8.590;2023-08-20T12:01:29;33.20;52.54
70246;SHT30;57637;49.272;8.590;2023-08-20T12:04:02;33.40;53.03
70246;SHT30;57637;49.272;8.590;2023-08-20T12:06:29;33.31;52.14
70246;SHT30;57637;49.272;8.590;2023-08-20T12:08:56;33.22;52.88
70246;SHT30;57637;49.272;8.590;2023-08-20T12:11:29;33.37;52.38
70246;SHT30;57637;49.272;8.590;2023-08-20T12:13:55;32.86;52.60
70246;SHT30;57637;49.272;8.590;2023-08-20T12:16:21;32.64;53.85
70246;SHT30;57637;49.272;8.590;2023-08-20T12:18:49;32.68;53.64
70246;SHT30;57637;49.272;8.590;2023-08-20T12:21:15;32.68;53.94
70246;SHT30;57637;49.272;8.590;2023-08-20T12:23:41;32.58;52.88
70246;SHT30;57637;49.272;8.590;2023-08-20T12:26:06;32.64;52.31
70246;SHT30;57637;49.272;8.590;2023-08-20T12:28:32;33.09;52.52
70246;SHT30;57637;49.272;8.590;2023-08-20T12:30:58;32.75;51.88
70246;SHT30;57637;49.272;8.590;2023-08-20T12:33:24;32.54;51.92
70246;SHT30;57637;49.272;8.590;2023-08-20T12:35:49;32.42;52.52
70246;SHT30;57637;49.272;8.590;2023-08-20T12:38:14;32.80;52.13
70246;SHT30;57637;49.272;8.590;2023-08-20T12:40:40;32.99;51.96
70246;SHT30;57637;49.272;8.590;2023-08-20T12:43:05;32.99;51.49
70246;SHT30;57637;49.272;8.590;2023-08-20T12:45:31;32.66;52.11
70246;SHT30;57637;49.272;8.590;2023-08-20T12:47:56;32.57;52.33
70246;SHT30;57637;49.272;8.590;2023-08-20T12:50:22;32.55;52.16
70246;SHT30;57637;49.272;8.590;2023-08-20T12:52:47;32.71;52.57
70246;SHT30;57637;49.272;8.590;2023-08-20T12:55:15;32.75;51.97
70246;SHT30;57637;49.272;8.590;2023-08-20T12:57:54;33.06;52.11
70246;SHT30;57637;49.272;8.590;2023-08-20T13:00:21;33.40;51.51
70246;SHT30;57637;49.272;8.590;2023-08-20T13:02:47;33.63;50.31
70246;SHT30;57637;49.272;8.590;2023-08-20T13:05:13;33.37;50.64
70246;SHT30;57637;49.272;8.590;2023-08-20T13:07:39;32.99;50.38
70246;SHT30;57637;49.272;8.590;2023-08-20T13:10:05;32.85;50.63
70246;SHT30;57637;49.272;8.590;2023-08-20T13:12:33;33.18;50.62
70246;SHT30;57637;49.272;8.590;2023-08-20T13:14:59;33.20;50.51
70246;SHT30;57637;49.272;8.590;2023-08-20T13:17:24;33.40;50.45
70246;SHT30;57637;49.272;8.590;2023-08-20T13:19:51;33.23;49.40
70246;SHT30;57637;49.272;8.590;2023-08-20T13:22:16;32.79;50.82
70246;SHT30;57637;49.272;8.590;2023-08-20T13:24:42;32.89;51.08
70246;SHT30;57637;49.272;8.590;2023-08-20T13:27:08;32.88;51.53
70246;SHT30;57637;49.272;8.590;2023-08-20T13:29:33;33.12;52.36
70246;SHT30;57637;49.272;8.590;2023-08-20T13:31:58;33.23;50.30
70246;SHT30;57637;49.272;8.590;2023-08-20T13:34:24;33.23;51.36
70246;SHT30;57637;49.272;8.590;2023-08-20T13:36:49;33.47;51.13
70246;SHT30;57637;49.272;8.590;2023-08-20T13:39:15;33.70;50.97
70246;SHT30;57637;49.272;8.590;2023-08-20T13:41:40;33.80;50.30
70246;SHT30;57637;49.272;8.590;2023-08-20T13:44:06;33.60;49.52
70246;SHT30;57637;49.272;8.590;2023-08-20T13:46:33;33.29;49.16
70246;SHT30;57637;49.272;8.590;2023-08-20T13:48:59;33.25;49.42
70246;SHT30;57637;49.272;8.590;2023-08-20T13:51:24;33.45;48.76
70246;SHT30;57637;49.272;8.590;2023-08-20T13:53:50;33.53;49.51
70246;SHT30;57637;49.272;8.590;2023-08-20T13:56:16;33.10;49.32
70246;SHT30;57637;49.272;8.590;2023-08-20T13:58:41;33.27;48.99
70246;SHT30;57637;49.272;8.590;2023-08-20T14:01:06;33.29;50.75
70246;SHT30;57637;49.272;8.590;2023-08-20T14:03:32;33.51;49.23
70246;SHT30;57637;49.272;8.590;2023-08-20T14:05:57;33.64;49.98
70246;SHT30;57637;49.272;8.590;2023-08-20T14:08:22;33.61;49.35
70246;SHT30;57637;49.272;8.590;2023-08-20T14:10:48;33.27;49.35
70246;SHT30;57637;49.272;8.590;2023-08-20T14:13:13;33.10;49.36
70246;SHT30;57637;49.272;8.590;2023-08-20T14:15:38;33.08;50.08
70246;SHT30;57637;49.272;8.590;2023-08-20T14:18:04;33.13;50.33
70246;SHT30;57637;49.272;8.590;2023-08-20T14:20:29;33.15;50.05
70246;SHT30;57637;49.272;8.590;2023-08-20T14:22:54;33.09;49.12
70246;SHT30;57637;49.272;8.590;2023-08-20T14:25:20;33.30;50.24
70246;SHT30;57637;49.272;8.590;2023-08-20T14:27:45;33.42;50.63
70246;SHT30;57637;49.272;8.590;2023-08-20T14:30:11;33.43;48.80
70246;SHT30;57637;49.272;8.590;2023-08-20T14:32:36;33.53;49.49
70246;SHT30;57637;49.272;8.590;2023-08-20T14:35:02;33.40;49.48
70246;SHT30;57637;49.272;8.590;2023-08-20T14:37:28;33.43;49.37
70246;SHT30;57637;49.272;8.590;2023-08-20T14:39:53;33.47;49.76
70246;SHT30;57637;49.272;8.590;2023-08-20T14:42:19;33.22;49.99
70246;SHT30;57637;49.272;8.590;2023-08-20T14:44:44;33.20;49.76
70246;SHT30;57637;49.272;8.590;2023-08-20T14:47:10;33.26;49.72
70246;SHT30;57637;49.272;8.590;2023-08-20T14:49:35;33.20;50.10
70246;SHT30;57637;49.272;8.590;2023-08-20T14:52:01;33.12;49.39
70246;SHT30;57637;49.272;8.590;2023-08-20T14:54:26;33.12;50.35
70246;SHT30;57637;49.272;8.590;2023-08-20T14:56:52;33.08;50.55
70246;SHT30;57637;49.272;8.590;2023-08-20T14:59:17;33.05;50.13
70246;SHT30;57637;49.272;8.590;2023-08-20T15:01:43;33.10;50.37
70246;SHT30;57637;49.272;8.590;2023-08-20T15:04:08;33.03;49.71
70246;SHT30;57637;49.272;8.590;2023-08-20T15:06:34;33.03;50.02
70246;SHT30;57637;49.272;8.590;2023-08-20T15:08:59;32.75;50.01
70246;SHT30;57637;49.272;8.590;2023-08-20T15:11:24;32.61;50.96
70246;SHT30;57637;49.272;8.590;2023-08-20T15:13:50;32.76;49.92
70246;SHT30;57637;49.272;8.590;2023-08-20T15:16:17;32.86;50.42
70246;SHT30;57637;49.272;8.590;2023-08-20T15:18:42;32.99;50.02
70246;SHT30;57637;49.272;8.590;2023-08-20T15:21:07;33.02;49.48
70246;SHT30;57637;49.272;8.590;2023-08-20T15:23:33;33.02;49.75
70246;SHT30;57637;49.272;8.590;2023-08-20T15:25:59;32.82;50.84
70246;SHT30;57637;49.272;8.590;2023-08-20T15:28:24;32.64;50.10
70246;SHT30;57637;49.272;8.590;2023-08-20T15:30:51;32.69;50.44
70246;SHT30;57637;49.272;8.590;2023-08-20T15:33:17;32.71;50.54
70246;SHT30;57637;49.272;8.590;2023-08-20T15:35:43;32.74;50.50
70246;SHT30;57637;49.272;8.590;2023-08-20T15:38:09;32.74;50.60
70246;SHT30;57637;49.272;8.590;2023-08-20T15:40:35;32.59;50.26